Time;durP1;ratioP1;P1;durP2;ratioP2;P2;SDS_P1;SDS_P2;PMS_P1;PMS_P2;Temp;Humidity;BMP_temperature;BMP_pressure;BME280_temperature;BME280_humidity;BME280_pressure;Samples;Min_cycle;Max_cycle;Signal;HPM_P1;HPM_P2
2023/04/14 00:01:47;;;;;;;2.63;1.88;;;;;;;;;;10073441;28;20061;-74
2023/04/14 00:06:40;;;;;;;3.70;1.85;;;;;;;;;;10102007;28;20451;-74
2023/04/14 00:11:34;;;;;;;1.90;1.80;;;;;;;;;;10085190;28;20114;-73
2023/04/14 00:16:31;;;;;;;2.13;1.92;;;;;;;;;;10087365;28;20136;-73
2023/04/14 00:21:25;;;;;;;1.90;1.80;;;;;;;;;;10091262;28;20041;-73
2023/04/14 00:26:19;;;;;;;2.53;1.98;;;;;;;;;;10090269;28;20090;-73
2023/04/14 00:31:14;;;;;;;3.28;1.60;;;;;;;;;;10084318;28;20049;-73
2023/04/14 00:36:09;;;;;;;1.95;1.83;;;;;;;;;;10071581;28;20413;-73
2023/04/14 00:41:02;;;;;;;1.92;1.83;;;;;;;;;;10091654;28;20049;-73
2023/04/14 00:45:56;;;;;;;1.75;1.60;;;;;;;;;;10073563;28;20057;-73
2023/04/14 00:50:50;;;;;;;1.90;1.80;;;;;;;;;;10076890;28;20113;-72
2023/04/14 00:55:43;;;;;;;1.95;1.85;;;;;;;;;;10079984;28;20072;-72
2023/04/14 01:00:36;;;;;;;1.63;1.52;;;;;;;;;;10055180;28;20467;-72
2023/04/14 01:05:31;;;;;;;1.92;1.83;;;;;;;;;;10072641;28;20119;-72
2023/04/14 01:10:30;;;;;;;4.55;2.70;;;;;;;;;;10089705;28;20486;-72
2023/04/14 01:15:32;;;;;;;1.90;1.75;;;;;;;;;;10055983;28;20105;-69
2023/04/14 01:20:32;;;;;;;4.10;1.92;;;;;;;;;;10072124;28;20124;-73
2023/04/14 01:25:44;;;;;;;1.63;1.40;;;;;;;;;;10063119;28;20049;-72
2023/04/14 01:31:02;;;;;;;1.50;1.40;;;;;;;;;;10055398;28;20398;-74
2023/04/14 01:35:56;;;;;;;1.88;1.30;;;;;;;;;;10061910;28;20047;-74
2023/04/14 01:40:53;;;;;;;1.50;1.40;;;;;;;;;;10057900;28;20435;-72
2023/04/14 01:45:50;;;;;;;2.13;1.92;;;;;;;;;;10068582;28;20103;-72
2023/04/14 01:50:43;;;;;;;1.73;1.63;;;;;;;;;;10048296;28;20057;-74
2023/04/14 01:55:37;;;;;;;2.80;1.73;;;;;;;;;;10084605;28;20132;-73
2023/04/14 02:00:31;;;;;;;1.40;1.30;;;;;;;;;;10052145;28;20061;-74
2023/04/14 02:05:26;;;;;;;1.63;1.50;;;;;;;;;;10079779;28;20045;-73
2023/04/14 02:10:20;;;;;;;2.00;1.90;;;;;;;;;;10054115;28;20132;-73
2023/04/14 02:15:16;;;;;;;2.78;2.50;;;;;;;;;;10086351;28;20455;-73
2023/04/14 02:20:12;;;;;;;3.63;3.33;;;;;;;;;;10086588;28;20047;-72
2023/04/14 02:25:06;;;;;;;2.92;2.63;;;;;;;;;;10054110;28;20400;-73
2023/04/14 02:30:01;;;;;;;2.60;2.40;;;;;;;;;;10057659;28;20064;-74
2023/04/14 02:35:08;;;;;;;2.60;2.40;;;;;;;;;;10066753;28;20049;-73
2023/04/14 02:40:03;;;;;;;2.85;2.65;;;;;;;;;;10083630;28;20405;-73
2023/04/14 02:45:01;;;;;;;2.85;2.65;;;;;;;;;;10053509;28;20045;-73
2023/04/14 02:49:55;;;;;;;2.95;2.22;;;;;;;;;;10100234;28;20045;-74
2023/04/14 02:54:50;;;;;;;2.45;2.25;;;;;;;;;;10075925;28;20064;-74
2023/04/14 02:59:45;;;;;;;2.80;2.17;;;;;;;;;;10070420;28;20069;-74
2023/04/14 03:04:40;;;;;;;2.33;2.22;;;;;;;;;;10065659;28;20077;-74
2023/04/14 03:09:41;;;;;;;2.63;2.40;;;;;;;;;;10058455;28;20069;-74
2023/04/14 03:14:36;;;;;;;3.25;3.03;;;;;;;;;;10057354;28;20527;-73
2023/04/14 03:19:29;;;;;;;2.65;2.45;;;;;;;;;;10054280;28;20236;-74
2023/04/14 03:24:26;;;;;;;4.68;2.83;;;;;;;;;;10059493;28;20547;-74
2023/04/14 03:29:20;;;;;;;2.72;2.53;;;;;;;;;;10057269;28;20076;-74
2023/04/14 03:34:14;;;;;;;2.33;2.13;;;;;;;;;;10075137;28;20048;-74
2023/04/14 03:39:13;;;;;;;2.47;2.28;;;;;;;;;;10068965;28;20049;-75
2023/04/14 03:44:14;;;;;;;2.45;2.25;;;;;;;;;;10069531;28;20083;-74
2023/04/14 03:49:11;;;;;;;2.38;2.17;;;;;;;;;;10062570;28;20088;-74
2023/04/14 03:54:05;;;;;;;3.08;2.10;;;;;;;;;;10059444;28;20099;-73
2023/04/14 03:59:00;;;;;;;1.98;1.88;;;;;;;;;;10075357;28;20084;-73
2023/04/14 04:03:59;;;;;;;2.33;1.90;;;;;;;;;;10094685;28;20057;-73
2023/04/14 04:08:52;;;;;;;1.70;1.60;;;;;;;;;;10059966;28;20084;-73
2023/04/14 04:13:47;;;;;;;2.03;1.92;;;;;;;;;;10071917;28;20053;-73
2023/04/14 04:18:45;;;;;;;2.60;2.40;;;;;;;;;;10048111;28;20045;-73
2023/04/14 04:23:41;;;;;;;1.83;1.47;;;;;;;;;;10061276;28;20044;-72
2023/04/14 04:28:35;;;;;;;1.10;1.10;;;;;;;;;;10087037;28;20047;-71
2023/04/14 04:33:28;;;;;;;0.88;0.88;;;;;;;;;;10108986;28;20136;-71
2023/04/14 04:38:22;;;;;;;1.45;1.35;;;;;;;;;;10100335;28;20059;-72
2023/04/14 04:43:20;;;;;;;3.53;1.38;;;;;;;;;;10093346;28;20099;-74
2023/04/14 04:48:14;;;;;;;1.95;1.00;;;;;;;;;;10128295;28;20091;-73
2023/04/14 04:53:08;;;;;;;3.30;1.10;;;;;;;;;;10122390;28;20048;-73
2023/04/14 04:58:01;;;;;;;1.30;1.20;;;;;;;;;;10142297;28;20541;-72
2023/04/14 05:02:55;;;;;;;0.85;0.82;;;;;;;;;;10147608;28;20037;-73
2023/04/14 05:07:49;;;;;;;1.08;1.08;;;;;;;;;;10147053;28;20491;-73
2023/04/14 05:12:42;;;;;;;2.70;1.25;;;;;;;;;;10148398;28;20123;-73
2023/04/14 05:17:35;;;;;;;0.93;0.93;;;;;;;;;;10145925;28;20094;-72
2023/04/14 05:22:30;;;;;;;1.52;1.42;;;;;;;;;;10134059;28;20059;-72
2023/04/14 05:27:25;;;;;;;1.20;1.10;;;;;;;;;;10122835;28;20056;-72
2023/04/14 05:32:19;;;;;;;1.70;1.60;;;;;;;;;;10128233;28;20542;-72
2023/04/14 05:37:12;;;;;;;2.53;2.25;;;;;;;;;;10116168;28;20068;-72
2023/04/14 05:42:06;;;;;;;5.40;2.58;;;;;;;;;;10100156;28;20045;-71
2023/04/14 05:47:01;;;;;;;6.13;2.33;;;;;;;;;;10111948;28;20061;-72
2023/04/14 05:51:56;;;;;;;2.05;1.85;;;;;;;;;;10094173;28;20088;-72
2023/04/14 05:56:49;;;;;;;2.47;1.77;;;;;;;;;;10088372;28;20048;-72
2023/04/14 06:01:47;;;;;;;1.50;1.40;;;;;;;;;;10084823;28;20042;-72
2023/04/14 06:06:41;;;;;;;1.50;1.40;;;;;;;;;;10087424;28;20056;-73
2023/04/14 06:11:36;;;;;;;1.80;1.70;;;;;;;;;;10069800;28;20061;-71
2023/04/14 06:16:29;;;;;;;2.58;2.13;;;;;;;;;;10077057;28;20216;-71
2023/04/14 06:21:23;;;;;;;2.10;1.90;;;;;;;;;;10077650;28;20434;-71
2023/04/14 06:26:17;;;;;;;2.88;1.75;;;;;;;;;;10075972;28;20060;-71
2023/04/14 06:31:13;;;;;;;8.07;2.83;;;;;;;;;;10098629;28;20080;-71
2023/04/14 06:36:07;;;;;;;6.10;2.20;;;;;;;;;;10096397;28;20067;-71
2023/04/14 06:41:01;;;;;;;4.10;2.53;;;;;;;;;;10099474;28;20077;-71
2023/04/14 06:45:54;;;;;;;2.35;2.13;;;;;;;;;;10097962;28;20049;-71
2023/04/14 06:50:54;;;;;;;3.28;2.95;;;;;;;;;;10106625;28;20491;-70
2023/04/14 06:55:57;;;;;;;4.80;3.35;;;;;;;;;;10106651;28;20073;-69
2023/04/14 07:01:14;;;;;;;2.83;2.55;;;;;;;;;;10103034;28;20057;-69
2023/04/14 07:06:10;;;;;;;3.40;3.10;;;;;;;;;;10087465;28;20076;-69
2023/04/14 07:11:05;;;;;;;6.22;3.30;;;;;;;;;;10087678;28;20133;-70
2023/04/14 07:16:00;;;;;;;5.13;4.63;;;;;;;;;;10104179;28;20441;-69
2023/04/14 07:20:53;;;;;;;6.65;5.10;;;;;;;;;;10078463;28;20041;-70
2023/04/14 07:25:54;;;;;;;6.00;5.05;;;;;;;;;;10087030;28;20081;-72
2023/04/14 07:30:48;;;;;;;5.75;3.78;;;;;;;;;;10074267;28;20041;-73
2023/04/14 07:35:42;;;;;;;2.53;2.30;;;;;;;;;;10091935;28;20049;-73
2023/04/14 07:40:51;;;;;;;2.00;1.80;;;;;;;;;;10088635;28;20056;-72
2023/04/14 07:45:45;;;;;;;7.10;5.88;;;;;;;;;;10088218;28;20061;-72
2023/04/14 07:50:39;;;;;;;6.13;5.55;;;;;;;;;;10137997;28;20431;-73
2023/04/14 07:55:32;;;;;;;4.72;4.15;;;;;;;;;;10123352;28;20040;-73
2023/04/14 08:00:25;;;;;;;4.35;3.95;;;;;;;;;;10119298;28;20083;-73
2023/04/14 08:05:20;;;;;;;9.32;4.63;;;;;;;;;;10112091;28;20041;-73
2023/04/14 08:10:16;;;;;;;3.85;3.55;;;;;;;;;;10137700;28;20106;-73
2023/04/14 08:15:11;;;;;;;5.82;3.75;;;;;;;;;;10139934;28;20384;-73
2023/04/14 08:20:05;;;;;;;3.33;3.03;;;;;;;;;;10126906;28;20044;-72
2023/04/14 08:25:00;;;;;;;5.25;3.40;;;;;;;;;;10136749;28;20098;-74
2023/04/14 08:29:53;;;;;;;4.90;3.00;;;;;;;;;;10127287;28;20103;-74
2023/04/14 08:34:47;;;;;;;5.05;3.70;;;;;;;;;;10136303;28;20104;-72
2023/04/14 08:39:59;;;;;;;7.18;3.83;;;;;;;;;;10119808;28;20059;-79
2023/04/14 08:44:53;;;;;;;6.95;4.22;;;;;;;;;;10123387;28;20078;-71
2023/04/14 08:49:51;;;;;;;6.03;5.43;;;;;;;;;;10113807;28;20085;-73
2023/04/14 08:54:45;;;;;;;10.50;6.45;;;;;;;;;;10118969;28;20514;-73
2023/04/14 08:59:40;;;;;;;7.75;6.68;;;;;;;;;;10129460;28;20105;-73
2023/04/14 09:04:36;;;;;;;12.43;6.30;;;;;;;;;;10133048;28;20053;-73
2023/04/14 09:09:30;;;;;;;9.48;5.35;;;;;;;;;;10118716;28;20115;-72
2023/04/14 09:14:23;;;;;;;10.20;5.05;;;;;;;;;;10116170;28;20128;-74
2023/04/14 09:19:17;;;;;;;10.40;5.53;;;;;;;;;;10116227;28;20392;-76
2023/04/14 09:24:11;;;;;;;10.40;4.65;;;;;;;;;;10091367;28;20063;-83
2023/04/14 09:29:05;;;;;;;12.65;4.05;;;;;;;;;;10124537;28;20044;-76
2023/04/14 09:33:58;;;;;;;10.70;5.30;;;;;;;;;;10122519;28;20072;-72
2023/04/14 09:38:52;;;;;;;16.73;4.75;;;;;;;;;;10111029;28;20041;-72
2023/04/14 09:43:45;;;;;;;7.55;4.10;;;;;;;;;;10122455;28;20052;-72
2023/04/14 09:48:55;;;;;;;10.50;3.00;;;;;;;;;;10104156;28;20158;-72
2023/04/14 09:53:49;;;;;;;5.68;3.20;;;;;;;;;;10086456;28;20069;-72
2023/04/14 09:58:43;;;;;;;4.68;2.90;;;;;;;;;;10080273;28;20049;-72
2023/04/14 10:03:44;;;;;;;3.00;2.55;;;;;;;;;;10085366;28;20119;-72
2023/04/14 10:08:40;;;;;;;6.63;3.05;;;;;;;;;;10086334;28;20063;-72
2023/04/14 10:13:34;;;;;;;5.00;2.97;;;;;;;;;;10073294;28;20152;-73
2023/04/14 10:18:27;;;;;;;4.00;1.30;;;;;;;;;;10084265;28;20029;-73
2023/04/14 10:23:20;;;;;;;3.83;1.35;;;;;;;;;;10092903;28;20147;-73
2023/04/14 10:28:13;;;;;;;1.75;0.90;;;;;;;;;;10093753;28;20041;-73
2023/04/14 10:33:07;;;;;;;1.08;0.98;;;;;;;;;;10096008;28;20049;-72
2023/04/14 10:38:03;;;;;;;3.55;0.80;;;;;;;;;;10093759;28;20056;-73
2023/04/14 10:42:56;;;;;;;1.00;0.90;;;;;;;;;;10094561;28;20060;-73
2023/04/14 10:47:49;;;;;;;3.55;1.92;;;;;;;;;;10115273;28;20079;-71
2023/04/14 10:52:54;;;;;;;15.55;11.32;;;;;;;;;;10134605;28;20048;-73
2023/04/14 10:57:47;;;;;;;1.65;1.50;;;;;;;;;;10116740;28;20044;-71
2023/04/14 11:02:53;;;;;;;2.03;1.55;;;;;;;;;;10133851;28;20410;-71
2023/04/14 11:07:48;;;;;;;0.80;0.80;;;;;;;;;;10133636;28;20155;-71
2023/04/14 11:12:42;;;;;;;1.75;0.80;;;;;;;;;;10125455;28;20060;-73
2023/04/14 11:17:42;;;;;;;1.50;1.40;;;;;;;;;;10124046;28;20048;-79
2023/04/14 11:22:40;;;;;;;7.00;2.58;;;;;;;;;;10126905;28;20052;-72
2023/04/14 11:27:33;;;;;;;5.55;1.27;;;;;;;;;;10124489;28;20040;-72
2023/04/14 11:32:27;;;;;;;0.52;0.43;;;;;;;;;;10100766;28;20072;-71
2023/04/14 11:37:20;;;;;;;1.13;0.60;;;;;;;;;;10115562;28;20045;-75
2023/04/14 11:42:14;;;;;;;0.95;0.45;;;;;;;;;;10135767;28;20098;-72
2023/04/14 11:47:07;;;;;;;1.27;0.50;;;;;;;;;;10128777;28;20048;-76
2023/04/14 11:52:06;;;;;;;1.05;0.70;;;;;;;;;;10144802;28;20067;-74
2023/04/14 11:57:00;;;;;;;3.00;0.47;;;;;;;;;;10137409;28;20487;-74
2023/04/14 12:01:56;;;;;;;2.30;0.43;;;;;;;;;;10142338;28;20052;-76
2023/04/14 12:06:50;;;;;;;0.50;0.35;;;;;;;;;;10124002;28;20044;-75
2023/04/14 12:11:53;;;;;;;2.38;0.40;;;;;;;;;;10120542;28;20076;-75
2023/04/14 12:16:47;;;;;;;2.60;0.52;;;;;;;;;;10142046;28;20415;-75
2023/04/14 12:21:40;;;;;;;0.88;0.52;;;;;;;;;;10129656;28;20040;-74
2023/04/14 12:26:36;;;;;;;0.50;0.40;;;;;;;;;;10134374;28;20072;-76
2023/04/14 12:31:30;;;;;;;1.25;0.38;;;;;;;;;;10138401;28;20051;-77
2023/04/14 12:36:24;;;;;;;0.47;0.22;;;;;;;;;;10135366;28;20048;-76
2023/04/14 12:41:39;;;;;;;1.15;0.50;;;;;;;;;;10143450;28;20544;-73
2023/04/14 12:46:33;;;;;;;0.43;0.32;;;;;;;;;;10137247;28;20168;-73
2023/04/14 12:51:26;;;;;;;0.52;0.30;;;;;;;;;;10125355;28;20481;-72
2023/04/14 12:56:23;;;;;;;2.10;0.40;;;;;;;;;;10141579;28;20151;-73
2023/04/14 13:01:21;;;;;;;0.73;0.30;;;;;;;;;;10137663;28;20047;-72
2023/04/14 13:06:15;;;;;;;0.70;0.50;;;;;;;;;;10145686;28;20044;-70
2023/04/14 13:11:08;;;;;;;1.73;0.43;;;;;;;;;;10139109;28;20075;-67
2023/04/14 13:16:02;;;;;;;1.40;0.40;;;;;;;;;;10136935;28;20145;-66
2023/04/14 13:21:06;;;;;;;0.77;0.50;;;;;;;;;;10127501;28;20053;-68
2023/04/14 13:25:59;;;;;;;0.65;0.30;;;;;;;;;;10136117;28;20389;-68
2023/04/14 13:30:54;;;;;;;0.20;0.20;;;;;;;;;;10129952;28;20132;-68
2023/04/14 13:35:48;;;;;;;1.55;0.43;;;;;;;;;;10132984;28;20044;-68
2023/04/14 13:40:42;;;;;;;1.75;0.40;;;;;;;;;;10131260;28;20127;-68
2023/04/14 13:45:38;;;;;;;0.40;0.40;;;;;;;;;;10118526;28;20057;-68
2023/04/14 13:50:31;;;;;;;0.95;0.50;;;;;;;;;;10093944;28;20049;-68
2023/04/14 13:55:24;;;;;;;0.40;0.40;;;;;;;;;;10097440;28;20065;-68
2023/04/14 14:00:17;;;;;;;0.30;0.30;;;;;;;;;;10097970;28;20457;-70
2023/04/14 14:05:13;;;;;;;0.55;0.50;;;;;;;;;;10087124;28;20045;-69
2023/04/14 14:10:09;;;;;;;0.30;0.30;;;;;;;;;;10092223;28;20045;-69
2023/04/14 14:15:04;;;;;;;2.17;0.40;;;;;;;;;;10086442;28;20391;-69
2023/04/14 14:19:57;;;;;;;0.40;0.40;;;;;;;;;;10070622;28;20033;-69
2023/04/14 14:24:50;;;;;;;2.75;0.40;;;;;;;;;;10085655;28;20099;-70
2023/04/14 14:29:50;;;;;;;0.30;0.30;;;;;;;;;;10084738;28;20048;-70
2023/04/14 14:34:46;;;;;;;0.43;0.43;;;;;;;;;;10090015;28;20091;-68
2023/04/14 14:39:40;;;;;;;0.88;0.60;;;;;;;;;;10085480;28;20052;-69
2023/04/14 14:44:33;;;;;;;0.30;0.30;;;;;;;;;;10081397;28;20102;-69
2023/04/14 14:49:26;;;;;;;0.52;0.43;;;;;;;;;;10134577;28;20056;-70
2023/04/14 14:54:20;;;;;;;2.65;0.47;;;;;;;;;;10128084;28;20040;-68
2023/04/14 14:59:13;;;;;;;0.60;0.50;;;;;;;;;;10126581;28;20045;-68
2023/04/14 15:04:06;;;;;;;0.65;0.60;;;;;;;;;;10141373;28;20103;-69
2023/04/14 15:08:59;;;;;;;1.17;0.65;;;;;;;;;;10135091;28;20503;-69
2023/04/14 15:13:59;;;;;;;1.00;0.50;;;;;;;;;;10131449;28;20051;-70
2023/04/14 15:18:53;;;;;;;0.50;0.50;;;;;;;;;;10124876;28;20053;-69
2023/04/14 15:23:45;;;;;;;2.42;0.50;;;;;;;;;;10137089;28;20045;-69
2023/04/14 15:28:38;;;;;;;1.10;0.80;;;;;;;;;;10141511;28;20098;-68
2023/04/14 15:33:31;;;;;;;1.00;0.50;;;;;;;;;;10145441;28;20489;-71
2023/04/14 15:38:25;;;;;;;1.05;0.50;;;;;;;;;;10136295;28;20052;-72
2023/04/14 15:43:19;;;;;;;0.57;0.47;;;;;;;;;;10132180;28;20068;-72
2023/04/14 15:48:12;;;;;;;0.70;0.60;;;;;;;;;;10138476;28;20060;-73
2023/04/14 15:53:06;;;;;;;4.13;0.60;;;;;;;;;;10122693;28;20057;-72
2023/04/14 15:58:01;;;;;;;1.23;0.90;;;;;;;;;;10131438;28;20096;-72
2023/04/14 16:02:55;;;;;;;1.00;0.80;;;;;;;;;;10137878;28;20074;-73
2023/04/14 16:07:50;;;;;;;0.75;0.68;;;;;;;;;;10133475;28;20072;-73
2023/04/14 16:12:44;;;;;;;2.60;0.90;;;;;;;;;;10136778;28;20067;-72
2023/04/14 16:17:38;;;;;;;1.50;0.63;;;;;;;;;;10138653;28;20091;-73
2023/04/14 16:22:33;;;;;;;2.15;0.60;;;;;;;;;;10123865;28;20056;-73
2023/04/14 16:27:26;;;;;;;3.30;0.73;;;;;;;;;;10136433;28;20051;-73
2023/04/14 16:32:20;;;;;;;2.67;0.80;;;;;;;;;;10131736;28;20075;-73
2023/04/14 16:37:13;;;;;;;1.25;0.60;;;;;;;;;;10122490;28;20052;-73
2023/04/14 16:42:08;;;;;;;2.67;0.70;;;;;;;;;;10135015;28;20350;-69
2023/04/14 16:47:01;;;;;;;1.95;0.82;;;;;;;;;;10159979;28;20410;-70
2023/04/14 16:51:56;;;;;;;5.65;0.95;;;;;;;;;;10143514;28;20159;-69
2023/04/14 16:56:48;;;;;;;1.88;0.90;;;;;;;;;;10162413;28;20445;-70
2023/04/14 17:01:43;;;;;;;0.60;0.60;;;;;;;;;;10164098;28;20048;-70
2023/04/14 17:06:37;;;;;;;2.95;1.70;;;;;;;;;;10163806;28;20665;-69
2023/04/14 17:11:31;;;;;;;1.02;0.80;;;;;;;;;;10138684;28;20094;-69
2023/04/14 17:16:26;;;;;;;0.68;0.57;;;;;;;;;;10143831;28;20443;-69
2023/04/14 17:21:19;;;;;;;2.67;0.80;;;;;;;;;;10148934;28;20045;-68
2023/04/14 17:26:13;;;;;;;1.35;0.73;;;;;;;;;;10154493;28;20025;-69
2023/04/14 17:31:12;;;;;;;2.28;1.00;;;;;;;;;;10152340;28;20051;-69
2023/04/14 17:36:04;;;;;;;1.52;1.00;;;;;;;;;;10153686;28;20048;-69
2023/04/14 17:40:58;;;;;;;2.42;1.52;;;;;;;;;;10131600;28;20082;-69
2023/04/14 17:45:51;;;;;;;6.38;2.35;;;;;;;;;;10150038;28;20053;-69
2023/04/14 17:50:45;;;;;;;1.95;0.93;;;;;;;;;;10148192;28;20052;-70
2023/04/14 17:55:38;;;;;;;2.47;0.80;;;;;;;;;;10126304;28;20114;-73
2023/04/14 18:00:30;;;;;;;1.88;0.90;;;;;;;;;;10147502;28;20063;-67
2023/04/14 18:05:24;;;;;;;3.63;1.42;;;;;;;;;;10156632;28;20074;-68
2023/04/14 18:10:17;;;;;;;2.00;1.20;;;;;;;;;;10161968;28;20110;-70
2023/04/14 18:15:14;;;;;;;1.55;1.08;;;;;;;;;;10157019;28;20052;-70
2023/04/14 18:20:09;;;;;;;1.05;0.80;;;;;;;;;;10162912;28;20060;-70
2023/04/14 18:25:03;;;;;;;3.50;1.58;;;;;;;;;;10152617;28;20468;-70
2023/04/14 18:29:58;;;;;;;3.40;1.00;;;;;;;;;;10153954;28;20075;-69
2023/04/14 18:34:51;;;;;;;2.22;1.00;;;;;;;;;;10147855;28;20060;-68
2023/04/14 18:39:44;;;;;;;1.58;0.80;;;;;;;;;;10146240;28;20067;-80
2023/04/14 18:44:38;;;;;;;1.50;1.20;;;;;;;;;;10147532;28;20140;-78
2023/04/14 18:49:32;;;;;;;0.82;0.77;;;;;;;;;;10152590;28;20135;-81
2023/04/14 18:54:25;;;;;;;5.88;1.35;;;;;;;;;;10148820;28;20056;-81
2023/04/14 18:59:18;;;;;;;1.83;1.70;;;;;;;;;;10143506;28;20054;-72
2023/04/14 19:04:12;;;;;;;2.08;0.98;;;;;;;;;;10143025;28;20044;-76
2023/04/14 19:09:07;;;;;;;0.80;0.80;;;;;;;;;;10150474;28;20520;-76
2023/04/14 19:14:04;;;;;;;7.85;2.75;;;;;;;;;;10151091;28;20047;-69
2023/04/14 19:18:58;;;;;;;3.70;0.98;;;;;;;;;;10112424;28;20049;-69
2023/04/14 19:23:53;;;;;;;0.65;0.65;;;;;;;;;;10126660;28;20051;-69
2023/04/14 19:28:46;;;;;;;1.70;0.85;;;;;;;;;;10121890;28;20052;-69
2023/04/14 19:33:40;;;;;;;1.88;0.80;;;;;;;;;;10136660;28;20489;-75
2023/04/14 19:38:34;;;;;;;1.60;0.80;;;;;;;;;;10136134;28;20045;-71
2023/04/14 19:43:28;;;;;;;0.75;0.65;;;;;;;;;;10141326;28;20194;-81
2023/04/14 19:48:21;;;;;;;1.63;0.80;;;;;;;;;;10149625;28;20051;-83
2023/04/14 19:53:16;;;;;;;2.13;0.80;;;;;;;;;;10148438;28;20051;-82
2023/04/14 19:58:11;;;;;;;4.03;0.82;;;;;;;;;;10128254;28;20127;-73
2023/04/14 20:03:05;;;;;;;0.63;0.63;;;;;;;;;;10145357;28;20059;-87
2023/04/14 20:07:59;;;;;;;2.85;0.90;;;;;;;;;;10150455;28;20514;-84
2023/04/14 20:12:53;;;;;;;3.47;1.45;;;;;;;;;;10147603;28;20474;-87
2023/04/14 20:17:45;;;;;;;3.70;2.58;;;;;;;;;;10152087;28;20055;-84
2023/04/14 20:22:39;;;;;;;1.33;1.20;;;;;;;;;;10157130;28;20044;-83
2023/04/14 20:27:34;;;;;;;1.48;1.38;;;;;;;;;;10146411;28;20105;-83
2023/04/14 20:32:28;;;;;;;3.80;1.17;;;;;;;;;;10132203;28;20048;-85
2023/04/14 20:37:22;;;;;;;6.93;1.38;;;;;;;;;;10133882;28;20072;-79
2023/04/14 20:42:16;;;;;;;4.00;1.00;;;;;;;;;;10133744;28;20051;-79
2023/04/14 20:47:09;;;;;;;6.25;4.15;;;;;;;;;;10133608;28;20068;-78
2023/04/14 20:52:04;;;;;;;1.60;1.08;;;;;;;;;;10129699;28;20040;-79
2023/04/14 20:56:58;;;;;;;0.80;0.65;;;;;;;;;;10145151;28;20573;-77
2023/04/14 21:01:51;;;;;;;2.30;1.90;;;;;;;;;;10159186;28;20695;-75
2023/04/14 21:06:46;;;;;;;1.80;0.82;;;;;;;;;;10160940;28;20063;-81
2023/04/14 21:11:40;;;;;;;1.00;0.80;;;;;;;;;;10165085;28;20503;-81
2023/04/14 21:16:34;;;;;;;1.17;0.90;;;;;;;;;;10160689;28;20395;-81
2023/04/14 21:21:28;;;;;;;3.60;0.90;;;;;;;;;;10165962;28;20052;-81
2023/04/14 21:26:22;;;;;;;2.28;1.38;;;;;;;;;;10161104;28;20051;-82
2023/04/14 21:31:16;;;;;;;1.67;0.80;;;;;;;;;;10156367;28;20061;-80
2023/04/14 21:36:09;;;;;;;1.58;0.70;;;;;;;;;;10162749;28;20054;-80
2023/04/14 21:41:02;;;;;;;2.08;1.00;;;;;;;;;;10157464;28;20475;-81
2023/04/14 21:45:56;;;;;;;1.15;0.70;;;;;;;;;;10133622;28;20068;-79
2023/04/14 21:50:50;;;;;;;3.58;1.00;;;;;;;;;;10140979;28;20050;-78
2023/04/14 21:55:45;;;;;;;1.42;0.60;;;;;;;;;;10149241;28;20044;-80
2023/04/14 22:00:40;;;;;;;0.90;0.77;;;;;;;;;;10127130;28;20575;-80
2023/04/14 22:05:34;;;;;;;1.85;0.73;;;;;;;;;;10126913;28;20076;-79
2023/04/14 22:10:30;;;;;;;3.03;0.90;;;;;;;;;;10139700;28;20507;-79
2023/04/14 22:15:24;;;;;;;4.03;0.77;;;;;;;;;;10142235;28;20110;-78
2023/04/14 22:20:18;;;;;;;1.60;0.75;;;;;;;;;;10127885;28;20049;-78
2023/04/14 22:25:11;;;;;;;4.28;0.85;;;;;;;;;;10137638;28;20075;-78
2023/04/14 22:30:08;;;;;;;4.50;0.63;;;;;;;;;;10124732;28;20045;-78
2023/04/14 22:35:02;;;;;;;3.05;0.70;;;;;;;;;;10118444;28;20045;-78
2023/04/14 22:39:55;;;;;;;2.75;0.93;;;;;;;;;;10108900;28;20052;-78
2023/04/14 22:44:50;;;;;;;2.15;0.90;;;;;;;;;;10115035;28;20123;-78
2023/04/14 22:49:43;;;;;;;8.68;1.27;;;;;;;;;;10086346;28;20064;-78
2023/04/14 22:54:36;;;;;;;1.92;0.90;;;;;;;;;;10074528;28;20045;-78
2023/04/14 22:59:28;;;;;;;1.80;0.80;;;;;;;;;;10074102;28;20144;-76
2023/04/14 23:04:24;;;;;;;2.90;1.20;;;;;;;;;;10069362;28;20053;-76
2023/04/14 23:09:19;;;;;;;6.80;1.20;;;;;;;;;;10070607;28;20053;-76
2023/04/14 23:14:12;;;;;;;4.20;1.02;;;;;;;;;;10072102;28;20161;-76
2023/04/14 23:19:05;;;;;;;1.67;1.10;;;;;;;;;;10088251;28;20075;-77
2023/04/14 23:23:59;;;;;;;2.17;1.13;;;;;;;;;;10094725;28;20131;-76
2023/04/14 23:28:52;;;;;;;2.03;1.13;;;;;;;;;;10098247;28;20041;-76
2023/04/14 23:33:48;;;;;;;4.15;1.55;;;;;;;;;;10080255;28;20063;-76
2023/04/14 23:38:41;;;;;;;2.42;1.40;;;;;;;;;;10083602;28;20108;-76
2023/04/14 23:43:33;;;;;;;6.85;1.40;;;;;;;;;;10073685;28;20048;-77
2023/04/14 23:48:27;;;;;;;2.92;1.20;;;;;;;;;;10112763;28;20069;-76
2023/04/14 23:53:20;;;;;;;2.67;1.20;;;;;;;;;;10137495;28;20060;-77
2023/04/14 23:58:14;;;;;;;2.35;1.20;;;;;;;;;;10151692;28;20067;-76
